createdAt,value
2022-08-27T00:00:45.857Z,10.25
2022-08-27T00:03:12.418Z,10.38
2022-08-27T00:05:39.318Z,10.63
2022-08-27T00:08:06.470Z,10.15
2022-08-27T00:10:33.931Z,9.38
2022-08-27T00:13:00.979Z,10.57
2022-08-27T00:15:27.746Z,9.98
2022-08-27T00:17:54.202Z,9.95
2022-08-27T00:20:23.621Z,9.82
2022-08-27T00:22:50.602Z,8.93
2022-08-27T00:25:17.371Z,9.63
2022-08-27T00:27:43.967Z,9.07
2022-08-27T00:30:13.616Z,8.77
2022-08-27T00:32:40.805Z,8.32
2022-08-27T00:35:08.446Z,8.73
2022-08-27T00:37:35.406Z,9.32
2022-08-27T00:40:02.117Z,9.18
2022-08-27T00:42:29.478Z,8.90
2022-08-27T00:44:57.811Z,10.43
2022-08-27T00:47:26.881Z,9.80
2022-08-27T00:50:01.188Z,10.30
2022-08-27T00:52:31.435Z,11.27
2022-08-27T00:55:05.752Z,9.73
2022-08-27T00:57:32.830Z,10.13
2022-08-27T00:59:59.307Z,10.52
2022-08-27T01:02:30.454Z,10.82
2022-08-27T01:05:00.525Z,10.20
2022-08-27T01:07:29.097Z,8.93
2022-08-27T01:09:59.135Z,10.25
2022-08-27T01:12:25.590Z,9.35
2022-08-27T01:14:52.580Z,10.27
2022-08-27T01:17:19.092Z,10.32
2022-08-27T01:19:49.640Z,10.32
2022-08-27T01:22:26.238Z,10.38
2022-08-27T01:24:55.221Z,9.57
2022-08-27T01:27:24.876Z,9.25
2022-08-27T01:29:51.387Z,9.90
2022-08-27T01:32:22.258Z,9.65
2022-08-27T01:34:48.732Z,8.77
2022-08-27T01:37:16.581Z,9.02
2022-08-27T01:39:50.374Z,8.38
2022-08-27T01:42:23.812Z,7.97
2022-08-27T01:44:55.600Z,8.10
2022-08-27T01:47:24.525Z,7.95
2022-08-27T01:49:57.571Z,7.05
2022-08-27T01:52:26.724Z,7.30
2022-08-27T01:54:53.384Z,7.60
2022-08-27T01:57:25.270Z,7.03
2022-08-27T01:59:52.611Z,7.00
2022-08-27T02:02:19.106Z,7.50
2022-08-27T02:04:45.798Z,6.93
2022-08-27T02:07:12.411Z,6.55
2022-08-27T02:09:38.895Z,6.07
2022-08-27T02:12:05.676Z,6.30
2022-08-27T02:14:32.139Z,6.63
2022-08-27T02:16:58.695Z,5.95
2022-08-27T02:19:25.290Z,6.18
2022-08-27T02:21:52.529Z,5.85
2022-08-27T02:24:18.997Z,5.57
2022-08-27T02:26:45.666Z,5.57
2022-08-27T02:29:12.371Z,5.85
2022-08-27T02:31:38.806Z,5.57
2022-08-27T02:34:05.430Z,6.32
2022-08-27T02:36:31.891Z,5.78
2022-08-27T02:38:58.419Z,5.82
2022-08-27T02:41:24.888Z,5.80
2022-08-27T02:43:51.348Z,5.75
2022-08-27T02:46:17.860Z,5.60
2022-08-27T02:48:44.850Z,4.63
2022-08-27T02:51:11.334Z,4.30
2022-08-27T02:53:38.012Z,4.85
2022-08-27T02:56:06.043Z,4.10
2022-08-27T02:58:33.635Z,3.80
2022-08-27T03:01:01.754Z,3.67
2022-08-27T03:03:29.485Z,3.83
2022-08-27T03:05:57.911Z,3.53
2022-08-27T03:08:27.770Z,2.78
2022-08-27T03:13:25.825Z,2.83
2022-08-27T03:15:53.150Z,2.63
2022-08-27T03:18:20.287Z,2.70
2022-08-27T03:20:49.862Z,2.97
2022-08-27T03:23:17.472Z,2.20
2022-08-27T03:25:51.449Z,2.80
2022-08-27T03:28:22.796Z,2.67
2022-08-27T03:31:01.311Z,2.58
2022-08-27T03:33:29.667Z,2.50
2022-08-27T03:35:56.354Z,2.65
2022-08-27T03:38:23.189Z,3.00
2022-08-27T03:40:50.525Z,2.90
2022-08-27T03:43:18.441Z,2.70
2022-08-27T03:45:57.523Z,3.03
2022-08-27T03:48:29.113Z,2.63
2022-08-27T03:50:55.622Z,2.75
2022-08-27T03:53:22.179Z,2.38
2022-08-27T03:55:49.175Z,2.75
2022-08-27T03:58:16.874Z,2.70
2022-08-27T04:00:43.650Z,2.03
2022-08-27T04:03:13.155Z,2.67
2022-08-27T04:05:40.149Z,2.10
2022-08-27T04:08:06.932Z,2.20
2022-08-27T04:10:34.863Z,2.00
2022-08-27T04:13:01.800Z,2.17
2022-08-27T04:15:28.412Z,2.60
2022-08-27T04:17:54.905Z,2.05
2022-08-27T04:20:36.609Z,2.40
2022-08-27T04:23:04.059Z,1.87
2022-08-27T04:25:30.669Z,1.92
2022-08-27T04:27:57.628Z,2.13
2022-08-27T04:30:24.125Z,2.45
2022-08-27T04:32:50.746Z,2.17
2022-08-27T04:35:17.371Z,2.10
2022-08-27T04:37:43.867Z,2.20
2022-08-27T04:40:10.869Z,1.50
2022-08-27T04:42:37.612Z,1.85
2022-08-27T04:45:04.996Z,1.80
2022-08-27T04:47:31.463Z,1.80
2022-08-27T04:49:57.981Z,1.90
2022-08-27T04:52:24.822Z,1.83
2022-08-27T04:54:51.526Z,2.22
2022-08-27T04:57:18.184Z,1.92
2022-08-27T04:59:44.927Z,1.85
2022-08-27T05:02:11.629Z,2.10
2022-08-27T05:04:40.087Z,1.67
2022-08-27T05:07:07.879Z,2.22
2022-08-27T05:09:34.527Z,2.35
2022-08-27T05:12:01.773Z,1.90
2022-08-27T05:14:32.620Z,2.10
2022-08-27T05:16:59.647Z,1.75
2022-08-27T05:19:26.394Z,2.13
2022-08-27T05:21:53.853Z,1.83
2022-08-27T05:24:20.746Z,2.13
2022-08-27T05:26:47.438Z,1.75
2022-08-27T05:29:14.285Z,2.10
2022-08-27T05:31:41.670Z,1.88
2022-08-27T05:34:11.418Z,2.22
2022-08-27T05:36:47.731Z,2.28
2022-08-27T05:41:41.798Z,1.90
2022-08-27T05:44:36.859Z,2.55
2022-08-27T05:46:56.106Z,1.92
2022-08-27T05:49:22.661Z,1.98
2022-08-27T05:51:49.091Z,2.15
2022-08-27T05:54:19.379Z,2.15
2022-08-27T05:56:47.038Z,2.10
2022-08-27T05:59:34.476Z,1.60
2022-08-27T06:02:01.488Z,2.08
2022-08-27T06:04:28.335Z,1.85
2022-08-27T06:06:54.813Z,2.25
2022-08-27T06:09:24.939Z,2.10
2022-08-27T06:11:54.304Z,1.88
2022-08-27T06:14:21.067Z,1.90
2022-08-27T06:16:48.612Z,2.10
2022-08-27T06:19:15.659Z,1.90
2022-08-27T06:21:42.378Z,1.65
2022-08-27T06:24:09.593Z,1.90
2022-08-27T06:26:36.319Z,1.77
2022-08-27T06:29:07.427Z,1.65
2022-08-27T06:31:35.629Z,2.15
2022-08-27T06:34:07.579Z,2.00
2022-08-27T06:36:37.121Z,2.10
2022-08-27T06:39:04.491Z,1.92
2022-08-27T06:41:30.991Z,1.92
2022-08-27T06:43:58.342Z,1.70
2022-08-27T06:46:26.608Z,1.90
2022-08-27T06:48:54.898Z,1.80
2022-08-27T06:51:27.310Z,2.42
2022-08-27T06:56:21.699Z,1.73
2022-08-27T06:58:52.700Z,1.83
2022-08-27T07:01:22.424Z,2.33
2022-08-27T07:03:49.228Z,1.70
2022-08-27T07:06:17.037Z,1.95
2022-08-27T07:08:43.765Z,1.83
2022-08-27T07:11:20.136Z,1.80
2022-08-27T07:13:47.990Z,1.92
2022-08-27T07:16:20.438Z,1.80
2022-08-27T07:18:54.276Z,1.60
2022-08-27T07:21:22.134Z,1.97
2022-08-27T07:23:51.500Z,2.13
2022-08-27T07:26:19.302Z,1.75
2022-08-27T07:28:46.622Z,1.50
2022-08-27T07:31:16.935Z,1.95
2022-08-27T07:33:51.486Z,2.17
2022-08-27T07:36:20.874Z,1.90
2022-08-27T07:38:56.883Z,1.98
2022-08-27T07:41:30.571Z,2.17
2022-08-27T07:44:17.032Z,1.90
2022-08-27T07:46:47.928Z,1.90
2022-08-27T07:49:15.295Z,2.33
2022-08-27T07:51:41.730Z,2.60
2022-08-27T07:54:08.989Z,2.10
2022-08-27T07:56:35.441Z,2.00
2022-08-27T07:59:01.999Z,2.13
2022-08-27T08:01:29.292Z,2.15
2022-08-27T08:03:56.229Z,1.85
2022-08-27T08:06:23.077Z,1.98
2022-08-27T08:08:49.609Z,1.85
2022-08-27T08:11:17.825Z,1.70
2022-08-27T08:13:45.345Z,1.67
2022-08-27T08:16:12.546Z,2.15
2022-08-27T08:18:39.547Z,2.15
2022-08-27T08:21:09.849Z,1.90
2022-08-27T08:23:36.506Z,1.52
2022-08-27T08:26:03.347Z,1.92
2022-08-27T08:28:30.167Z,2.10
2022-08-27T08:30:58.376Z,2.33
2022-08-27T08:33:25.715Z,2.00
2022-08-27T08:35:52.995Z,1.92
2022-08-27T08:38:20.021Z,2.17
2022-08-27T08:40:50.252Z,2.15
2022-08-27T08:43:27.634Z,2.00
2022-08-27T08:45:55.514Z,1.92
2022-08-27T08:48:24.046Z,1.80
2022-08-27T08:51:05.692Z,2.40
2022-08-27T08:53:45.844Z,2.40
2022-08-27T08:56:18.663Z,2.30
2022-08-27T08:58:53.189Z,2.03
2022-08-27T09:01:21.021Z,2.22
2022-08-27T09:03:57.254Z,2.67
2022-08-27T09:06:48.516Z,2.67
2022-08-27T09:09:52.572Z,2.33
2022-08-27T09:12:26.803Z,2.85
2022-08-27T09:15:02.516Z,3.83
2022-08-27T09:17:31.577Z,3.13
2022-08-27T09:19:58.054Z,3.58
2022-08-27T09:22:57.904Z,3.25
2022-08-27T09:25:39.694Z,3.42
2022-08-27T09:28:33.125Z,3.47
2022-08-27T09:31:05.054Z,2.80
2022-08-27T09:33:46.090Z,3.05
2022-08-27T09:36:22.950Z,3.00
2022-08-27T09:38:59.008Z,3.85
2022-08-27T09:41:29.184Z,3.70
2022-08-27T09:43:59.868Z,3.50
2022-08-27T09:46:27.089Z,3.80
2022-08-27T09:48:53.925Z,3.83
2022-08-27T09:51:23.726Z,3.67
2022-08-27T09:53:53.468Z,3.83
2022-08-27T09:56:37.644Z,4.05
2022-08-27T09:59:37.824Z,3.60
2022-08-27T10:02:22.417Z,4.63
2022-08-27T10:04:54.086Z,4.28
2022-08-27T10:07:41.817Z,4.83
2022-08-27T10:10:42.527Z,4.63
2022-08-27T10:13:29.903Z,4.47
2022-08-27T10:16:13.375Z,4.68
2022-08-27T10:19:12.124Z,4.32
2022-08-27T10:21:47.513Z,4.38
2022-08-27T10:24:37.116Z,4.15
2022-08-27T10:27:28.032Z,4.97
2022-08-27T10:30:08.356Z,4.18
2022-08-27T10:32:52.314Z,4.97
2022-08-27T10:35:53.733Z,5.00
2022-08-27T10:38:44.367Z,5.00
2022-08-27T10:41:42.691Z,5.15
2022-08-27T10:44:35.402Z,5.38
2022-08-27T10:47:14.245Z,5.75
2022-08-27T10:49:40.552Z,5.47
2022-08-27T10:52:18.150Z,5.80
2022-08-27T10:54:57.668Z,5.63
2022-08-27T10:57:59.084Z,5.70
2022-08-27T11:01:04.740Z,5.80
2022-08-27T11:03:44.563Z,5.30
2022-08-27T11:06:28.153Z,5.93
2022-08-27T11:09:07.721Z,5.78
2022-08-27T11:14:30.538Z,5.75
2022-08-27T11:19:30.395Z,5.30
2022-08-27T11:22:05.041Z,5.43
2022-08-27T11:24:36.777Z,4.95
2022-08-27T11:27:06.094Z,5.20
2022-08-27T11:29:43.268Z,5.43
2022-08-27T11:32:29.603Z,5.03
2022-08-27T11:35:14.117Z,6.10
2022-08-27T11:37:47.198Z,5.40
2022-08-27T11:40:32.633Z,5.72
2022-08-27T11:43:08.126Z,5.88
2022-08-27T11:45:38.922Z,6.45
2022-08-27T11:48:23.828Z,6.57
2022-08-27T11:51:06.909Z,5.65
2022-08-27T11:53:52.059Z,5.43
2022-08-27T11:56:31.155Z,5.10
2022-08-27T11:59:22.407Z,5.55
2022-08-27T12:01:52.270Z,5.38
2022-08-27T12:04:30.968Z,5.40
2022-08-27T12:07:24.948Z,5.43
2022-08-27T12:10:08.745Z,5.18
2022-08-27T12:12:53.039Z,5.15
2022-08-27T12:15:48.050Z,5.43
2022-08-27T12:18:49.765Z,5.13
2022-08-27T12:21:53.970Z,4.90
2022-08-27T12:24:59.569Z,4.72
2022-08-27T12:27:34.554Z,4.68
2022-08-27T12:30:19.462Z,5.03
2022-08-27T12:32:46.851Z,4.57
2022-08-27T12:35:29.838Z,4.63
2022-08-27T12:38:06.931Z,4.88
2022-08-27T12:40:48.666Z,4.22
2022-08-27T12:43:19.059Z,3.60
2022-08-27T12:45:47.707Z,3.92
2022-08-27T12:48:19.055Z,7.25
2022-08-27T12:50:51.986Z,3.85
2022-08-27T12:53:34.652Z,4.45
2022-08-27T12:56:30.265Z,4.18
2022-08-27T12:59:11.616Z,4.32
2022-08-27T13:01:47.411Z,4.50
2022-08-27T13:04:22.345Z,3.65
2022-08-27T13:06:49.317Z,3.03
2022-08-27T13:09:15.740Z,3.33
2022-08-27T13:11:48.330Z,2.88
2022-08-27T13:14:20.066Z,3.47
2022-08-27T13:16:52.890Z,2.95
2022-08-27T13:19:31.123Z,3.25
2022-08-27T13:22:01.474Z,2.90
2022-08-27T13:24:34.279Z,2.80
2022-08-27T13:27:03.002Z,2.70
2022-08-27T13:29:29.829Z,2.50
2022-08-27T13:31:56.617Z,2.72
2022-08-27T13:34:25.731Z,2.67
2022-08-27T13:36:59.982Z,2.95
2022-08-27T13:39:27.992Z,2.67
2022-08-27T13:41:55.129Z,2.75
2022-08-27T13:44:25.885Z,2.35
2022-08-27T13:47:02.428Z,2.53
2022-08-27T13:49:31.689Z,2.47
2022-08-27T13:52:23.252Z,2.50
2022-08-27T13:54:59.422Z,2.60
2022-08-27T13:57:31.717Z,2.83
2022-08-27T14:00:10.626Z,2.40
2022-08-27T14:02:37.341Z,2.78
2022-08-27T14:05:05.883Z,2.65
2022-08-27T14:07:38.999Z,2.33
2022-08-27T14:10:26.853Z,2.33
2022-08-27T14:13:03.554Z,2.58
2022-08-27T14:15:35.903Z,2.88
2022-08-27T14:18:05.005Z,2.65
2022-08-27T14:20:31.527Z,2.85
2022-08-27T14:22:59.523Z,4.40
2022-08-27T14:25:26.228Z,2.78
2022-08-27T14:27:54.513Z,2.28
2022-08-27T14:30:28.827Z,2.10
2022-08-27T14:32:58.458Z,1.90
2022-08-27T14:35:25.656Z,1.85
2022-08-27T14:37:52.104Z,2.40
2022-08-27T14:40:18.596Z,1.92
2022-08-27T14:42:45.720Z,2.30
2022-08-27T14:45:12.278Z,2.10
2022-08-27T14:47:39.642Z,2.08
2022-08-27T14:50:11.718Z,2.25
2022-08-27T14:52:39.859Z,1.77
2022-08-27T14:55:10.486Z,2.28
2022-08-27T14:57:37.384Z,1.73
2022-08-27T15:00:07.927Z,2.25
2022-08-27T15:02:35.198Z,2.13
2022-08-27T15:05:01.676Z,2.28
2022-08-27T15:07:37.933Z,2.00
2022-08-27T15:10:06.537Z,2.50
2022-08-27T15:12:33.011Z,2.10
2022-08-27T15:14:59.458Z,1.98
2022-08-27T15:17:34.510Z,1.95
2022-08-27T15:20:08.423Z,2.40
2022-08-27T15:22:36.707Z,2.28
2022-08-27T15:25:05.362Z,1.90
2022-08-27T15:27:38.539Z,2.38
2022-08-27T15:30:07.070Z,4.57
2022-08-27T15:32:36.601Z,2.88
2022-08-27T15:35:07.861Z,2.00
2022-08-27T15:37:34.699Z,1.80
2022-08-27T15:40:01.690Z,2.47
2022-08-27T15:42:28.380Z,3.50
2022-08-27T15:44:55.887Z,3.05
2022-08-27T15:47:23.758Z,2.40
2022-08-27T15:49:50.318Z,2.80
2022-08-27T15:52:20.406Z,3.88
2022-08-27T15:54:49.021Z,3.20
2022-08-27T15:57:16.892Z,2.30
2022-08-27T15:59:44.662Z,2.13
2022-08-27T16:02:16.852Z,2.10
2022-08-27T16:04:43.653Z,1.90
2022-08-27T16:07:20.170Z,2.25
2022-08-27T16:09:48.062Z,2.10
2022-08-27T16:12:25.671Z,2.15
2022-08-27T16:14:53.982Z,1.90
2022-08-27T16:17:21.147Z,1.95
2022-08-27T16:19:47.564Z,2.10
2022-08-27T16:22:14.692Z,1.85
2022-08-27T16:24:41.192Z,2.22
2022-08-27T16:27:07.885Z,1.90
2022-08-27T16:29:34.554Z,2.10
2022-08-27T16:32:01.567Z,1.75
2022-08-27T16:34:29.799Z,1.80
2022-08-27T16:36:56.543Z,1.77
2022-08-27T16:39:23.398Z,1.85
2022-08-27T16:41:50.346Z,2.10
2022-08-27T16:44:17.622Z,2.25
2022-08-27T16:46:44.131Z,1.90
2022-08-27T16:49:29.413Z,1.60
2022-08-27T16:51:55.864Z,1.75
2022-08-27T16:54:22.413Z,1.70
2022-08-27T16:56:49.332Z,1.88
2022-08-27T16:59:16.393Z,1.90
2022-08-27T17:01:43.170Z,1.50
2022-08-27T17:04:17.286Z,1.95
2022-08-27T17:06:48.477Z,1.98
2022-08-27T17:09:15.814Z,1.90
2022-08-27T17:11:43.313Z,2.10
2022-08-27T17:14:10.824Z,1.83
2022-08-27T17:16:37.861Z,1.73
2022-08-27T17:19:05.222Z,2.40
2022-08-27T17:21:32.743Z,3.33
2022-08-27T17:24:02.491Z,3.53
2022-08-27T17:26:30.803Z,2.60
2022-08-27T17:28:57.342Z,2.80
2022-08-27T17:31:28.393Z,2.67
2022-08-27T17:33:59.149Z,1.52
2022-08-27T17:36:27.092Z,2.40
2022-08-27T17:38:54.473Z,3.10
2022-08-27T17:41:34.185Z,3.22
2022-08-27T17:44:04.314Z,1.95
2022-08-27T17:46:30.917Z,2.17
2022-08-27T17:48:57.464Z,1.90
2022-08-27T17:51:23.953Z,1.55
2022-08-27T17:53:55.937Z,1.48
2022-08-27T17:56:26.399Z,1.77
2022-08-27T17:58:53.915Z,1.60
2022-08-27T18:01:28.397Z,2.00
2022-08-27T18:03:55.932Z,2.00
2022-08-27T18:06:22.821Z,1.70
2022-08-27T18:08:49.279Z,2.47
2022-08-27T18:11:16.705Z,1.55
2022-08-27T18:13:43.330Z,1.98
2022-08-27T18:16:12.082Z,1.30
2022-08-27T18:18:38.771Z,1.40
2022-08-27T18:21:07.790Z,1.50
2022-08-27T18:23:36.463Z,1.60
2022-08-27T18:26:03.084Z,1.70
2022-08-27T18:28:31.051Z,1.90
2022-08-27T18:30:57.609Z,1.60
2022-08-27T18:33:24.153Z,1.88
2022-08-27T18:35:50.631Z,1.75
2022-08-27T18:38:18.460Z,1.85
2022-08-27T18:40:47.234Z,1.92
2022-08-27T18:43:14.581Z,2.40
2022-08-27T18:45:41.182Z,2.22
2022-08-27T18:48:14.724Z,1.73
2022-08-27T18:50:46.924Z,1.90
2022-08-27T18:53:18.114Z,2.33
2022-08-27T18:55:44.651Z,1.50
2022-08-27T18:58:11.439Z,1.80
2022-08-27T19:00:43.221Z,1.90
2022-08-27T19:03:10.565Z,1.70
2022-08-27T19:05:37.148Z,2.00
2022-08-27T19:08:03.900Z,1.70
2022-08-27T19:10:30.337Z,1.48
2022-08-27T19:12:56.849Z,1.63
2022-08-27T19:15:23.362Z,1.67
2022-08-27T19:17:52.202Z,1.73
2022-08-27T19:20:19.766Z,1.30
2022-08-27T19:22:47.168Z,1.95
2022-08-27T19:25:13.734Z,1.70
2022-08-27T19:27:40.357Z,1.58
2022-08-27T19:30:07.742Z,1.52
2022-08-27T19:32:34.483Z,1.20
2022-08-27T19:35:00.947Z,1.75
2022-08-27T19:37:29.324Z,1.63
2022-08-27T19:39:55.959Z,1.75
2022-08-27T19:42:22.481Z,1.65
2022-08-27T19:44:48.935Z,1.90
2022-08-27T19:47:21.343Z,1.85
2022-08-27T19:52:16.107Z,1.73
2022-08-27T19:55:09.775Z,2.40
2022-08-27T19:57:29.050Z,2.42
2022-08-27T19:59:55.529Z,2.20
2022-08-27T20:02:22.000Z,2.22
2022-08-27T20:05:14.365Z,2.67
2022-08-27T20:07:35.064Z,2.53
2022-08-27T20:10:08.269Z,2.38
2022-08-27T20:12:35.106Z,2.70
2022-08-27T20:15:01.798Z,2.80
2022-08-27T20:17:28.405Z,2.53
2022-08-27T20:19:55.869Z,2.85
2022-08-27T20:22:22.325Z,2.78
2022-08-27T20:24:48.855Z,3.05
2022-08-27T20:27:15.276Z,4.05
2022-08-27T20:29:42.294Z,2.78
2022-08-27T20:32:08.715Z,2.90
2022-08-27T20:34:35.105Z,3.00
2022-08-27T20:37:02.486Z,3.15
2022-08-27T20:39:31.671Z,3.38
2022-08-27T20:41:58.498Z,3.20
2022-08-27T20:44:24.943Z,2.80
2022-08-27T20:46:55.924Z,3.20
2022-08-27T20:49:22.419Z,3.30
2022-08-27T20:51:51.304Z,3.20
2022-08-27T20:54:30.011Z,3.35
2022-08-27T20:56:56.463Z,3.38
2022-08-27T20:59:41.528Z,3.45
2022-08-27T21:02:12.708Z,4.00
2022-08-27T21:04:41.642Z,3.17
2022-08-27T21:07:08.106Z,3.42
2022-08-27T21:09:34.576Z,3.67
2022-08-27T21:12:01.419Z,4.07
2022-08-27T21:14:27.938Z,3.65
2022-08-27T21:16:54.701Z,3.25
2022-08-27T21:19:21.208Z,3.25
2022-08-27T21:21:47.928Z,3.15
2022-08-27T21:24:14.396Z,3.45
2022-08-27T21:26:40.965Z,3.47
2022-08-27T21:29:07.467Z,3.70
2022-08-27T21:31:33.944Z,3.45
2022-08-27T21:34:00.425Z,3.95
2022-08-27T21:36:26.879Z,3.70
2022-08-27T21:38:53.405Z,3.25
2022-08-27T21:41:20.361Z,3.67
2022-08-27T21:43:46.992Z,3.30
2022-08-27T21:46:13.546Z,3.38
2022-08-27T21:48:40.104Z,3.05
2022-08-27T21:51:11.347Z,4.03
2022-08-27T21:53:38.169Z,3.50
2022-08-27T21:56:04.629Z,3.67
2022-08-27T21:58:31.131Z,3.47
2022-08-27T22:00:57.879Z,3.22
2022-08-27T22:03:25.355Z,3.80
2022-08-27T22:05:51.919Z,3.80
2022-08-27T22:08:19.713Z,3.70
2022-08-27T22:10:49.320Z,4.07
2022-08-27T22:13:15.859Z,3.63
2022-08-27T22:15:42.349Z,3.92
2022-08-27T22:18:09.241Z,3.83
2022-08-27T22:20:35.759Z,3.65
2022-08-27T22:23:04.864Z,3.80
2022-08-27T22:25:31.586Z,4.07
2022-08-27T22:27:58.054Z,3.72
2022-08-27T22:30:24.498Z,3.88
2022-08-27T22:32:51.342Z,3.40
2022-08-27T22:35:18.126Z,3.80
2022-08-27T22:37:44.762Z,3.90
2022-08-27T22:40:19.104Z,4.43
2022-08-27T22:42:46.107Z,4.22
2022-08-27T22:45:12.608Z,3.60
2022-08-27T22:47:39.052Z,4.50
2022-08-27T22:50:06.307Z,4.20
2022-08-27T22:52:32.813Z,3.50
2022-08-27T22:54:59.287Z,4.30
2022-08-27T22:57:25.740Z,4.22
2022-08-27T22:59:52.241Z,4.47
2022-08-27T23:02:19.001Z,3.92
2022-08-27T23:04:54.913Z,4.20
2022-08-27T23:07:22.692Z,4.47
2022-08-27T23:09:49.125Z,3.85
2022-08-27T23:12:15.538Z,4.53
2022-08-27T23:14:41.970Z,4.03
2022-08-27T23:17:08.410Z,4.20
2022-08-27T23:19:34.912Z,4.60
2022-08-27T23:22:01.331Z,4.72
2022-08-27T23:24:32.802Z,4.18
2022-08-27T23:27:17.838Z,4.85
2022-08-27T23:29:45.562Z,4.50
2022-08-27T23:32:12.061Z,4.82
2022-08-27T23:34:38.465Z,4.60
2022-08-27T23:37:04.908Z,4.50
2022-08-27T23:39:31.323Z,4.82
2022-08-27T23:41:57.860Z,5.65
2022-08-27T23:44:28.361Z,4.57
2022-08-27T23:46:55.029Z,5.00
2022-08-27T23:49:21.469Z,4.57
2022-08-27T23:51:47.891Z,4.38
2022-08-27T23:54:14.293Z,4.65
2022-08-27T23:56:40.903Z,4.63
2022-08-27T23:59:07.300Z,4.65
